Time;durP1;ratioP1;P1;durP2;ratioP2;P2;SDS_P1;SDS_P2;PMS_P1;PMS_P2;Temp;Humidity;BMP_temperature;BMP_pressure;BME280_temperature;BME280_humidity;BME280_pressure;Samples;Min_cycle;Max_cycle;Signal;HPM_P1;HPM_P2
2023/09/17 00:00:31;;;;;;;6.80;3.10;;;;;;;14.61;93.36;96130.11;106972;1273;24060;-76
2023/09/17 00:03:19;;;;;;;9.30;3.00;;;;;;;14.54;92.56;96128.15;106723;1273;22520;-76
2023/09/17 00:05:47;;;;;;;8.80;3.70;;;;;;;14.46;93.21;96119.84;106875;1273;22524;-75
2023/09/17 00:08:16;;;;;;;4.40;3.20;;;;;;;14.49;94.13;96124.90;106907;1273;24370;-76
2023/09/17 00:10:45;;;;;;;6.50;3.60;;;;;;;14.58;94.01;96124.71;106898;1269;23887;-76
2023/09/17 00:13:13;;;;;;;4.50;3.30;;;;;;;14.52;93.19;96122.19;107015;1273;22534;-76
2023/09/17 00:15:41;;;;;;;9.50;3.40;;;;;;;14.54;93.61;96127.11;106947;1273;25401;-75
2023/09/17 00:18:10;;;;;;;5.00;2.80;;;;;;;14.53;92.85;96130.30;106727;1273;22528;-76
2023/09/17 00:20:38;;;;;;;6.90;3.20;;;;;;;14.48;92.64;96124.73;107253;1273;24205;-76
2023/09/17 00:23:06;;;;;;;12.40;4.40;;;;;;;14.53;93.23;96123.41;107053;1273;22629;-76
2023/09/17 00:25:35;;;;;;;4.70;3.20;;;;;;;14.55;93.16;96124.96;106956;1273;22525;-76
2023/09/17 00:28:04;;;;;;;10.40;4.10;;;;;;;14.47;92.30;96122.64;106965;1273;25469;-76
2023/09/17 00:30:32;;;;;;;6.20;3.40;;;;;;;14.37;92.49;96123.61;106693;1273;25415;-76
2023/09/17 00:33:00;;;;;;;7.00;3.70;;;;;;;14.34;93.24;96124.58;106933;1273;22535;-76
2023/09/17 00:35:28;;;;;;;7.90;3.50;;;;;;;14.37;93.09;96122.39;106996;1273;24356;-76
2023/09/17 00:37:56;;;;;;;14.10;4.00;;;;;;;14.36;92.87;96117.27;106704;1251;23241;-76
2023/09/17 00:40:29;;;;;;;6.40;3.20;;;;;;;14.31;92.66;96119.16;106952;1273;22550;-76
2023/09/17 00:42:57;;;;;;;4.50;3.10;;;;;;;14.25;93.07;96118.25;107075;1273;22519;-76
2023/09/17 00:45:25;;;;;;;5.40;3.10;;;;;;;14.22;93.55;96119.20;106858;1273;23884;-76
2023/09/17 00:47:55;;;;;;;4.40;3.30;;;;;;;14.15;93.33;96120.11;107059;1273;25510;-76
2023/09/17 00:50:23;;;;;;;10.70;3.60;;;;;;;14.12;93.50;96120.52;107172;1273;22593;-76
2023/09/17 00:52:52;;;;;;;7.30;3.50;;;;;;;14.05;92.84;96120.31;107150;1273;22516;-76
2023/09/17 00:55:20;;;;;;;5.40;3.20;;;;;;;14.02;93.57;96125.52;106980;1273;25405;-76
2023/09/17 00:57:50;;;;;;;8.60;3.50;;;;;;;14.06;94.16;96127.02;106966;1273;22676;-76
2023/09/17 01:00:21;;;;;;;8.60;3.60;;;;;;;14.03;93.46;96124.60;106906;1273;24386;-76
2023/09/17 01:02:50;;;;;;;10.50;3.30;;;;;;;14.02;93.17;96123.05;107012;1273;22543;-77
2023/09/17 01:05:19;;;;;;;6.10;3.40;;;;;;;14.01;93.24;96123.77;107118;1273;24396;-76
2023/09/17 01:07:48;;;;;;;12.60;3.80;;;;;;;14.03;93.62;96126.03;107138;1273;23077;-76
2023/09/17 01:10:17;;;;;;;9.20;3.40;;;;;;;14.09;93.61;96122.36;106975;1273;22594;-76
2023/09/17 01:12:45;;;;;;;8.60;3.20;;;;;;;14.02;92.62;96121.98;107026;1273;24274;-76
2023/09/17 01:15:14;;;;;;;4.80;3.60;;;;;;;13.92;92.60;96122.21;106938;1273;25425;-75
2023/09/17 01:17:42;;;;;;;4.90;3.40;;;;;;;13.88;93.32;96120.02;106961;1273;25367;-75
2023/09/17 01:20:24;;;;;;;7.30;3.40;;;;;;;13.92;93.39;96121.69;106970;1267;24212;-76
2023/09/17 01:23:04;;;;;;;6.00;3.60;;;;;;;13.89;92.45;96119.64;106917;1273;22651;-76
2023/09/17 01:25:51;;;;;;;6.80;2.90;;;;;;;13.78;92.20;96118.29;106925;1273;25376;-76
2023/09/17 01:28:21;;;;;;;6.20;3.40;;;;;;;13.73;92.73;96117.00;106852;1273;22520;-76
2023/09/17 01:30:50;;;;;;;6.10;3.70;;;;;;;13.67;92.61;96118.36;106921;1260;26664;-76
2023/09/17 01:33:18;;;;;;;8.40;3.30;;;;;;;13.61;92.92;96119.56;106698;1273;22722;-76
2023/09/17 01:35:58;;;;;;;5.70;3.00;;;;;;;13.61;93.64;96123.64;106951;1273;25334;-75
2023/09/17 01:38:32;;;;;;;5.70;3.30;;;;;;;13.58;93.41;96124.56;106767;1273;22675;-76
2023/09/17 01:41:04;;;;;;;7.20;3.60;;;;;;;13.53;93.16;96119.38;106911;1273;24334;-75
2023/09/17 01:43:33;;;;;;;8.40;3.60;;;;;;;13.54;93.79;96123.60;106962;1263;24230;-76
2023/09/17 01:46:02;;;;;;;7.40;3.40;;;;;;;13.48;93.40;96125.31;106952;1273;24231;-75
2023/09/17 01:48:32;;;;;;;7.80;3.60;;;;;;;13.47;93.24;96127.48;106944;1273;22527;-76
2023/09/17 01:51:02;;;;;;;8.00;3.90;;;;;;;13.40;93.11;96133.62;106889;1273;22524;-76
2023/09/17 01:53:32;;;;;;;5.30;4.00;;;;;;;13.35;93.70;96127.34;106772;1273;24476;-75
2023/09/17 01:56:01;;;;;;;7.20;4.40;;;;;;;13.34;93.86;96127.20;106928;1263;22517;-75
2023/09/17 01:58:29;;;;;;;11.10;4.20;;;;;;;13.38;93.79;96124.29;106830;1273;25284;-75
2023/09/17 02:00:57;;;;;;;4.50;3.90;;;;;;;13.38;93.56;96125.70;106924;1273;24209;-75
2023/09/17 02:03:26;;;;;;;6.70;4.20;;;;;;;13.37;93.50;96127.48;106882;1273;24081;-75
2023/09/17 02:05:54;;;;;;;7.00;4.10;;;;;;;13.32;93.32;96123.90;106964;1273;24206;-75
2023/09/17 02:08:22;;;;;;;5.50;3.60;;;;;;;13.26;93.26;96123.98;106896;1273;22516;-75
2023/09/17 02:10:50;;;;;;;4.20;3.80;;;;;;;13.26;93.64;96123.12;106839;1273;25421;-75
2023/09/17 02:13:18;;;;;;;7.80;4.10;;;;;;;13.23;94.52;96122.11;106917;1273;24285;-75
2023/09/17 02:15:47;;;;;;;5.20;4.00;;;;;;;13.19;94.20;96124.66;106922;1273;22879;-75
2023/09/17 02:18:16;;;;;;;7.70;4.40;;;;;;;13.12;94.05;96127.27;106952;1273;24355;-75
2023/09/17 02:20:45;;;;;;;11.50;3.80;;;;;;;13.06;94.44;96125.80;107025;1273;22537;-75
2023/09/17 02:23:13;;;;;;;6.00;3.40;;;;;;;13.04;94.71;96127.96;107106;1273;25379;-76
2023/09/17 02:25:41;;;;;;;5.00;3.80;;;;;;;13.03;94.31;96129.92;106692;1273;22639;-75
2023/09/17 02:28:09;;;;;;;9.90;4.40;;;;;;;13.04;94.53;96132.71;106907;1273;23895;-75
2023/09/17 02:30:37;;;;;;;11.70;4.00;;;;;;;13.05;95.38;96134.81;106936;1273;22559;-76
2023/09/17 02:33:06;;;;;;;8.10;4.50;;;;;;;13.06;96.19;96133.39;106782;1273;22560;-76
2023/09/17 02:35:35;;;;;;;5.60;4.10;;;;;;;13.11;96.44;96129.41;107098;1273;24241;-75
2023/09/17 02:38:03;;;;;;;10.40;4.00;;;;;;;13.20;96.52;96127.81;106680;1273;22661;-75
2023/09/17 02:40:31;;;;;;;10.10;4.20;;;;;;;13.28;96.13;96134.05;106850;1273;24260;-76
2023/09/17 02:43:01;;;;;;;8.60;3.80;;;;;;;13.23;95.13;96131.11;106755;1273;22566;-76
2023/09/17 02:45:29;;;;;;;9.00;4.30;;;;;;;13.23;95.14;96132.00;106775;1273;22609;-75
2023/09/17 02:47:58;;;;;;;7.20;3.70;;;;;;;13.27;95.35;96129.45;106749;1273;25379;-76
2023/09/17 02:50:26;;;;;;;7.80;3.90;;;;;;;13.30;95.36;96133.11;107063;1273;22617;-76
2023/09/17 02:52:54;;;;;;;6.20;4.20;;;;;;;13.34;95.71;96134.47;106795;1273;22635;-75
2023/09/17 02:55:22;;;;;;;9.50;4.20;;;;;;;13.37;96.00;96133.50;106983;1268;26659;-75
2023/09/17 02:57:50;;;;;;;5.30;4.10;;;;;;;13.49;96.54;96132.19;107075;1273;22553;-76
2023/09/17 03:00:21;;;;;;;11.10;5.30;;;;;;;13.64;96.38;96131.34;107144;1273;22526;-76
2023/09/17 03:02:54;;;;;;;9.40;4.40;;;;;;;13.73;96.09;96132.19;106914;1273;26048;-75
2023/09/17 03:05:24;;;;;;;5.50;3.70;;;;;;;13.83;95.82;96132.67;106746;1273;22530;-76
2023/09/17 03:07:53;;;;;;;6.30;3.90;;;;;;;13.83;94.39;96137.98;106965;1273;22740;-75
2023/09/17 03:10:22;;;;;;;6.60;3.60;;;;;;;13.87;95.07;96137.73;107030;1273;22624;-76
2023/09/17 03:12:50;;;;;;;9.00;3.60;;;;;;;13.97;94.94;96137.66;106667;1273;25418;-76
2023/09/17 03:15:19;;;;;;;7.80;4.20;;;;;;;13.97;93.84;96135.00;106824;1273;24212;-76
2023/09/17 03:17:47;;;;;;;7.20;4.20;;;;;;;13.96;94.25;96131.52;106925;1273;22531;-75
2023/09/17 03:20:18;;;;;;;5.40;3.80;;;;;;;14.07;95.01;96132.30;106831;1273;24315;-75
2023/09/17 03:22:48;;;;;;;6.90;3.70;;;;;;;14.18;94.60;96126.39;106802;1273;22632;-75
2023/09/17 03:25:17;;;;;;;8.10;3.90;;;;;;;14.18;93.95;96123.91;106656;1273;286794;-75
2023/09/17 03:27:46;;;;;;;9.70;4.50;;;;;;;14.14;93.50;96122.59;107099;1273;24279;-76
2023/09/17 03:30:14;;;;;;;24.70;10.00;;;;;;;14.13;93.85;96121.02;107164;1273;22527;-77
2023/09/17 03:32:42;;;;;;;15.30;8.50;;;;;;;14.08;94.30;96122.55;106686;1273;22547;-76
2023/09/17 03:35:30;;;;;;;52.60;20.20;;;;;;;14.04;94.43;96124.23;106926;1273;24240;-76
2023/09/17 03:37:59;;;;;;;68.00;28.10;;;;;;;14.09;94.78;96123.58;106985;1273;24383;-76
2023/09/17 03:40:27;;;;;;;47.70;21.50;;;;;;;14.18;95.23;96122.85;107027;1273;22610;-76
2023/09/17 03:42:55;;;;;;;47.20;19.60;;;;;;;14.28;95.41;96123.82;106698;1273;24396;-76
2023/09/17 03:45:23;;;;;;;22.70;11.00;;;;;;;14.36;94.84;96122.40;106945;1273;22533;-76
2023/09/17 03:47:53;;;;;;;25.50;10.60;;;;;;;14.36;94.21;96120.98;107048;1273;26685;-76
2023/09/17 03:50:21;;;;;;;15.00;7.60;;;;;;;14.36;93.83;96122.05;107140;1273;22519;-76
2023/09/17 03:52:53;;;;;;;15.30;7.30;;;;;;;14.31;93.92;96119.52;107159;1273;25549;-76
2023/09/17 03:55:23;;;;;;;10.50;5.60;;;;;;;14.29;93.71;96124.16;106781;1273;25239;-76
2023/09/17 03:57:56;;;;;;;14.40;6.50;;;;;;;14.28;93.86;96121.89;106752;1260;24247;-76
2023/09/17 04:00:26;;;;;;;13.10;6.70;;;;;;;14.33;94.73;96125.28;106758;1273;24881;-76
2023/09/17 04:02:54;;;;;;;15.00;6.60;;;;;;;14.50;95.32;96120.65;106949;1273;22628;-76
2023/09/17 04:05:24;;;;;;;16.70;5.90;;;;;;;14.65;95.21;96121.17;106876;1273;23891;-76
2023/09/17 04:07:52;;;;;;;10.20;5.70;;;;;;;14.71;94.09;96116.73;106708;1273;25369;-76
2023/09/17 04:10:20;;;;;;;8.40;5.30;;;;;;;14.77;93.80;96118.20;106811;1273;25424;-77
2023/09/17 04:12:49;;;;;;;8.50;4.40;;;;;;;14.83;93.85;96122.64;106954;1273;24386;-76
2023/09/17 04:15:20;;;;;;;8.20;4.20;;;;;;;14.90;93.35;96119.09;106786;1273;22848;-76
2023/09/17 04:17:53;;;;;;;11.30;4.40;;;;;;;14.90;92.80;96121.55;106928;1273;22530;-76
2023/09/17 04:20:23;;;;;;;8.30;3.80;;;;;;;14.89;92.68;96122.46;107097;1273;22517;-76
2023/09/17 04:22:51;;;;;;;3.70;3.30;;;;;;;14.94;93.06;96123.21;106914;1273;24237;-76
2023/09/17 04:25:20;;;;;;;5.20;3.10;;;;;;;15.01;92.73;96119.32;106918;1273;22552;-76
2023/09/17 04:27:52;;;;;;;3.40;3.10;;;;;;;15.04;92.44;96120.82;107081;1273;24285;-76
2023/09/17 04:30:22;;;;;;;3.60;3.20;;;;;;;15.05;91.84;96125.23;106973;1273;25411;-77
2023/09/17 04:32:52;;;;;;;6.30;2.90;;;;;;;15.07;92.01;96126.41;106707;1273;22759;-77
2023/09/17 04:35:21;;;;;;;4.10;3.10;;;;;;;15.08;91.68;96129.04;106809;1273;23242;-77
2023/09/17 04:37:50;;;;;;;10.80;5.30;;;;;;;15.06;91.55;96130.35;106960;1273;24215;-76
2023/09/17 04:40:28;;;;;;;17.70;7.20;;;;;;;15.10;91.95;96134.98;106974;1273;25583;-77
2023/09/17 04:42:58;;;;;;;14.80;7.00;;;;;;;15.05;91.25;96131.60;107012;1260;24486;-76
2023/09/17 04:45:37;;;;;;;14.50;6.00;;;;;;;15.04;92.11;96130.91;106867;1261;22513;-76
2023/09/17 04:48:22;;;;;;;12.50;3.50;;;;;;;15.09;92.42;96135.21;106859;1273;23014;-76
2023/09/17 04:50:50;;;;;;;7.40;3.10;;;;;;;15.11;91.77;96136.40;106702;1273;22536;-76
2023/09/17 04:53:18;;;;;;;5.20;3.70;;;;;;;15.09;91.54;96128.83;106655;1273;24381;-76
2023/09/17 04:55:48;;;;;;;6.30;4.20;;;;;;;15.07;91.27;96132.98;107111;1273;22536;-76
2023/09/17 04:58:19;;;;;;;3.00;2.70;;;;;;;15.06;91.84;96136.02;107162;1273;22611;-76
2023/09/17 05:00:48;;;;;;;5.00;2.70;;;;;;;15.13;92.04;96140.06;107133;1273;22527;-77
2023/09/17 05:03:18;;;;;;;2.80;2.50;;;;;;;15.10;91.26;96143.67;107025;1273;22528;-76
2023/09/17 05:05:46;;;;;;;2.80;2.50;;;;;;;15.11;91.71;96142.77;107096;1273;22527;-76
2023/09/17 05:08:16;;;;;;;3.50;3.00;;;;;;;15.17;91.81;96141.02;106807;1273;22663;-76
2023/09/17 05:10:45;;;;;;;4.90;2.80;;;;;;;15.27;92.10;96141.63;106932;1273;24050;-76
2023/09/17 05:13:13;;;;;;;6.70;2.80;;;;;;;15.31;91.17;96140.45;107027;1273;22625;-76
2023/09/17 05:15:42;;;;;;;3.60;2.70;;;;;;;15.34;91.41;96140.19;106892;1273;23303;-76
2023/09/17 05:18:10;;;;;;;5.10;2.40;;;;;;;15.32;90.61;96144.14;107073;1273;25490;-76
2023/09/17 05:20:44;;;;;;;3.90;2.50;;;;;;;15.28;90.87;96145.13;107125;1273;22478;-76
2023/09/17 05:23:13;;;;;;;4.30;2.90;;;;;;;15.27;91.18;96148.90;106980;1273;24470;-77
2023/09/17 05:25:41;;;;;;;3.70;2.70;;;;;;;15.31;91.33;96149.13;106961;1273;23883;-77
2023/09/17 05:28:10;;;;;;;4.80;2.70;;;;;;;15.30;90.76;96150.95;106756;1273;24034;-77
2023/09/17 05:30:38;;;;;;;11.20;2.80;;;;;;;15.26;91.14;96153.52;106721;1273;22633;-76
2023/09/17 05:33:07;;;;;;;5.10;2.90;;;;;;;15.30;91.81;96148.79;106836;1273;22523;-76
2023/09/17 05:35:39;;;;;;;3.10;2.70;;;;;;;15.39;91.68;96154.04;106966;1273;22533;-76
2023/09/17 05:38:07;;;;;;;4.60;3.30;;;;;;;15.38;91.21;96156.56;106760;1273;22520;-77
2023/09/17 05:40:35;;;;;;;3.80;2.80;;;;;;;15.38;91.28;96157.80;106797;1273;25361;-76
2023/09/17 05:43:04;;;;;;;5.50;3.10;;;;;;;15.35;91.07;96159.13;106955;1273;24371;-77
2023/09/17 05:45:32;;;;;;;3.00;2.70;;;;;;;15.29;91.11;96159.97;106842;1273;24284;-77
2023/09/17 05:48:01;;;;;;;3.50;2.80;;;;;;;15.31;91.56;96164.56;107007;1273;22526;-77
2023/09/17 05:50:30;;;;;;;4.90;2.70;;;;;;;15.29;91.28;96171.17;107111;1273;22693;-77
2023/09/17 05:52:58;;;;;;;4.60;2.40;;;;;;;15.30;91.79;96170.44;107028;1273;24216;-77
2023/09/17 05:55:28;;;;;;;4.90;3.10;;;;;;;15.38;91.47;96170.40;106746;1273;24353;-77
2023/09/17 05:57:57;;;;;;;6.20;3.90;;;;;;;15.38;90.91;96172.16;107092;1273;22519;-77
2023/09/17 06:00:25;;;;;;;7.40;4.00;;;;;;;15.40;91.33;96169.09;106956;1273;22521;-77
2023/09/17 06:02:54;;;;;;;5.10;4.50;;;;;;;15.37;91.12;96162.42;106695;1273;22642;-76
2023/09/17 06:05:23;;;;;;;5.20;4.60;;;;;;;15.37;91.31;96163.33;106943;1273;24362;-77
2023/09/17 06:07:52;;;;;;;8.30;4.80;;;;;;;15.39;91.29;96163.61;106977;1273;22723;-76
2023/09/17 06:10:21;;;;;;;7.50;4.00;;;;;;;15.42;91.58;96163.20;106709;1273;22530;-76
2023/09/17 06:12:50;;;;;;;4.00;3.60;;;;;;;15.44;91.44;96163.85;106958;1273;25444;-76
2023/09/17 06:15:18;;;;;;;13.60;10.30;;;;;;;15.44;91.05;96165.43;106757;1273;22531;-76
2023/09/17 06:17:46;;;;;;;10.90;7.60;;;;;;;15.40;90.53;96166.61;106929;1273;23018;-77
2023/09/17 06:20:15;;;;;;;12.00;8.40;;;;;;;15.36;91.10;96166.70;107164;1273;22516;-76
2023/09/17 06:22:45;;;;;;;10.30;7.10;;;;;;;15.37;92.01;96167.58;107086;1273;25494;-76
2023/09/17 06:25:15;;;;;;;7.30;4.90;;;;;;;15.44;92.15;96165.80;107120;1273;22538;-77
2023/09/17 06:27:45;;;;;;;6.90;5.30;;;;;;;15.52;92.26;96171.23;106772;1273;24196;-77
2023/09/17 06:30:14;;;;;;;8.60;4.50;;;;;;;15.58;92.04;96167.85;106953;1273;25207;-76
2023/09/17 06:32:43;;;;;;;5.20;4.70;;;;;;;15.65;91.93;96168.20;106754;1273;22540;-77
2023/09/17 06:35:11;;;;;;;7.50;5.60;;;;;;;15.67;91.45;96166.53;106706;1273;24406;-77
2023/09/17 06:37:40;;;;;;;18.30;7.80;;;;;;;15.67;91.12;96166.17;106703;1273;26964;-77
2023/09/17 06:40:10;;;;;;;14.40;6.50;;;;;;;15.72;91.44;96170.32;107305;1273;22619;-77
2023/09/17 06:42:39;;;;;;;14.00;7.20;;;;;;;15.80;91.89;96171.13;107084;1273;22705;-77
2023/09/17 06:45:08;;;;;;;16.30;7.30;;;;;;;15.92;91.77;96172.02;106947;1273;24208;-77
2023/09/17 06:47:36;;;;;;;12.90;6.70;;;;;;;15.99;91.74;96176.95;106931;1273;25550;-77
2023/09/17 06:50:06;;;;;;;9.60;6.70;;;;;;;16.14;92.06;96174.38;107079;1273;25510;-77
2023/09/17 06:52:34;;;;;;;9.30;6.00;;;;;;;16.26;91.95;96171.34;106718;1273;22536;-77
2023/09/17 06:55:04;;;;;;;10.00;6.40;;;;;;;16.32;91.09;96169.89;106950;1273;24377;-77
2023/09/17 06:57:32;;;;;;;9.10;6.00;;;;;;;16.38;91.26;96174.33;106923;1273;22524;-77
2023/09/17 07:00:00;;;;;;;11.00;7.30;;;;;;;16.52;92.00;96169.42;106934;1273;22533;-77
2023/09/17 07:02:29;;;;;;;10.10;7.50;;;;;;;16.70;91.73;96168.30;107082;1273;24547;-77
2023/09/17 07:05:00;;;;;;;8.70;6.70;;;;;;;16.87;91.76;96171.31;106853;1273;22779;-77
2023/09/17 07:07:29;;;;;;;10.40;7.30;;;;;;;16.99;91.22;96170.54;106852;1273;22559;-77
2023/09/17 07:09:57;;;;;;;8.00;6.60;;;;;;;17.10;90.79;96168.04;106895;1273;22531;-77
2023/09/17 07:12:25;;;;;;;9.90;6.80;;;;;;;17.20;90.44;96169.83;106960;1273;22571;-77
2023/09/17 07:14:53;;;;;;;8.70;7.30;;;;;;;17.34;90.93;96167.70;107046;1273;24043;-78
2023/09/17 07:17:21;;;;;;;8.20;6.50;;;;;;;17.49;90.09;96168.56;106862;1273;24375;-78
2023/09/17 07:19:49;;;;;;;8.40;6.30;;;;;;;17.61;89.66;96169.04;106930;1273;23045;-78
2023/09/17 07:22:17;;;;;;;8.20;6.50;;;;;;;17.77;89.95;96172.20;107009;1273;22643;-78
2023/09/17 07:24:45;;;;;;;7.80;6.60;;;;;;;17.89;89.17;96171.41;106873;1273;22523;-77
2023/09/17 07:27:14;;;;;;;8.20;6.30;;;;;;;18.00;89.09;96176.14;107131;1273;25423;-78
2023/09/17 07:29:42;;;;;;;8.10;6.70;;;;;;;18.13;88.90;96175.08;107091;1273;22539;-77
2023/09/17 07:32:10;;;;;;;7.80;6.30;;;;;;;18.25;87.86;96178.71;106737;1273;22532;-77
2023/09/17 07:34:39;;;;;;;9.30;6.20;;;;;;;18.38;87.70;96179.09;106961;1273;25479;-77
2023/09/17 07:37:08;;;;;;;8.10;6.10;;;;;;;18.58;87.56;96179.55;106948;1273;22527;-77
2023/09/17 07:39:38;;;;;;;6.80;5.90;;;;;;;18.74;86.67;96183.88;106872;1273;22523;-77
2023/09/17 07:42:06;;;;;;;7.60;6.40;;;;;;;18.91;85.34;96188.04;106913;1273;24384;-77
2023/09/17 07:44:35;;;;;;;7.20;6.40;;;;;;;19.01;83.93;96187.23;106961;1273;24270;-77
2023/09/17 07:47:03;;;;;;;8.00;6.70;;;;;;;19.11;83.47;96185.20;106923;1273;24701;-77
2023/09/17 07:49:32;;;;;;;8.50;7.00;;;;;;;19.20;83.46;96185.70;106950;1273;22539;-77
2023/09/17 07:52:00;;;;;;;8.80;7.00;;;;;;;19.22;82.92;96179.54;106936;1273;22625;-78
2023/09/17 07:54:30;;;;;;;10.20;7.30;;;;;;;19.18;82.67;96188.81;106933;1273;22653;-78
2023/09/17 07:56:58;;;;;;;9.80;7.70;;;;;;;19.20;82.06;96190.36;107067;1273;22517;-77
2023/09/17 07:59:26;;;;;;;8.30;6.90;;;;;;;19.20;82.32;96186.39;107111;1273;22523;-76
2023/09/17 08:01:54;;;;;;;7.90;7.00;;;;;;;19.43;83.39;96185.04;107090;1273;24259;-77
2023/09/17 08:04:23;;;;;;;9.80;6.90;;;;;;;19.55;82.02;96183.29;106927;1273;24259;-77
2023/09/17 08:06:51;;;;;;;8.80;6.50;;;;;;;19.53;80.98;96182.84;106758;1273;24359;-77
2023/09/17 08:09:19;;;;;;;9.00;6.80;;;;;;;19.38;80.15;96183.86;106876;1273;24102;-77
2023/09/17 08:11:48;;;;;;;8.10;6.60;;;;;;;19.31;80.66;96183.98;106859;1267;22547;-77
2023/09/17 08:14:16;;;;;;;7.70;6.90;;;;;;;19.24;81.18;96184.63;106890;1273;25349;-77
2023/09/17 08:16:45;;;;;;;10.40;6.70;;;;;;;19.16;80.94;96188.19;107111;1273;25415;-77
2023/09/17 08:19:13;;;;;;;7.00;6.00;;;;;;;19.16;81.87;96186.77;106931;1273;22754;-78
2023/09/17 08:21:41;;;;;;;8.60;6.70;;;;;;;19.26;81.63;96178.34;106885;1273;24216;-78
2023/09/17 08:24:10;;;;;;;7.20;6.50;;;;;;;19.34;82.19;96178.15;106868;1273;22520;-77
2023/09/17 08:26:38;;;;;;;7.50;5.90;;;;;;;19.56;81.86;96173.27;106956;1273;24353;-77
2023/09/17 08:29:06;;;;;;;6.20;5.50;;;;;;;19.87;80.88;96170.09;106984;1273;24269;-77
2023/09/17 08:31:35;;;;;;;7.20;5.30;;;;;;;20.11;78.75;96171.45;106937;1273;25353;-76
2023/09/17 08:34:03;;;;;;;9.10;6.10;;;;;;;20.07;78.84;96175.23;106934;1273;22534;-77
2023/09/17 08:36:32;;;;;;;7.30;5.60;;;;;;;20.07;79.18;96178.06;106920;1273;22764;-77
2023/09/17 08:39:01;;;;;;;8.30;5.80;;;;;;;20.02;78.14;96176.15;106937;1273;22580;-77
2023/09/17 08:41:29;;;;;;;7.30;5.80;;;;;;;19.98;78.89;96177.11;107068;1273;25280;-77
2023/09/17 08:43:58;;;;;;;6.50;5.70;;;;;;;19.96;78.54;96182.91;107141;1273;22517;-78
2023/09/17 08:46:29;;;;;;;8.10;5.90;;;;;;;19.91;78.56;96180.77;106976;1273;24370;-78
2023/09/17 08:48:58;;;;;;;5.90;5.30;;;;;;;19.97;78.82;96181.62;106997;1273;22576;-78
2023/09/17 08:51:32;;;;;;;6.50;5.70;;;;;;;20.02;78.65;96182.05;106874;1273;25556;-78
2023/09/17 08:54:06;;;;;;;11.30;6.20;;;;;;;20.01;77.57;96181.39;106947;1273;22530;-78
2023/09/17 08:56:37;;;;;;;6.80;6.10;;;;;;;20.03;77.79;96182.02;106919;1273;24702;-77
2023/09/17 08:59:24;;;;;;;6.60;5.60;;;;;;;20.10;77.30;96185.24;106962;1273;25355;-77
2023/09/17 09:01:54;;;;;;;6.60;5.70;;;;;;;20.08;76.15;96184.99;106946;1273;25384;-77
2023/09/17 09:04:23;;;;;;;7.70;6.20;;;;;;;20.06;76.14;96185.08;106920;1273;24072;-78
2023/09/17 09:06:54;;;;;;;10.30;6.40;;;;;;;20.03;75.70;96182.92;107016;1273;25361;-78
2023/09/17 09:09:23;;;;;;;10.70;6.70;;;;;;;20.09;76.56;96182.64;106941;1273;22525;-77
2023/09/17 09:11:52;;;;;;;8.50;6.20;;;;;;;20.25;77.34;96178.67;106834;1273;25344;-77
2023/09/17 09:14:20;;;;;;;7.30;6.50;;;;;;;20.51;77.28;96176.34;106915;1273;23877;-76
2023/09/17 09:16:49;;;;;;;6.70;5.90;;;;;;;20.95;77.07;96171.17;106845;1273;25527;-76
2023/09/17 09:19:17;;;;;;;7.70;6.10;;;;;;;21.41;76.95;96162.92;106894;1273;25303;-76
2023/09/17 09:21:45;;;;;;;7.10;6.30;;;;;;;21.78;73.92;96159.19;106932;1273;22527;-76
2023/09/17 09:24:16;;;;;;;6.60;5.50;;;;;;;22.06;73.52;96163.21;106866;1273;24244;-76
2023/09/17 09:26:44;;;;;;;6.00;5.40;;;;;;;22.28;72.73;96161.66;106841;1267;24215;-76
2023/09/17 09:29:12;;;;;;;7.00;5.70;;;;;;;22.42;70.81;96163.03;106930;1272;25340;-76
2023/09/17 09:31:42;;;;;;;7.10;5.40;;;;;;;22.47;70.03;96163.81;106839;1273;24284;-76
2023/09/17 09:34:12;;;;;;;6.80;5.60;;;;;;;22.43;68.32;96158.84;106848;1273;24404;-77
2023/09/17 09:36:44;;;;;;;5.10;4.70;;;;;;;22.61;69.95;96161.94;106887;1263;22521;-76
2023/09/17 09:39:15;;;;;;;8.10;5.70;;;;;;;22.85;69.97;96160.58;106861;1273;25529;-76
2023/09/17 09:41:44;;;;;;;5.70;5.10;;;;;;;22.98;68.61;96161.61;106889;1273;25981;-76
2023/09/17 09:44:12;;;;;;;6.20;5.60;;;;;;;23.03;68.25;96161.15;106965;1273;23928;-76
2023/09/17 09:46:40;;;;;;;8.60;5.70;;;;;;;23.09;68.32;96155.98;106969;1273;22533;-77
2023/09/17 09:49:08;;;;;;;7.50;5.90;;;;;;;23.22;69.46;96153.37;107045;1273;22520;-77
2023/09/17 09:51:36;;;;;;;5.60;5.10;;;;;;;23.30;68.11;96154.48;106890;1273;25488;-75
2023/09/17 09:54:05;;;;;;;6.20;5.00;;;;;;;23.46;68.32;96156.05;106858;1273;25354;-76
2023/09/17 09:56:33;;;;;;;6.60;4.80;;;;;;;23.59;67.23;96158.73;106893;1273;25296;-76
2023/09/17 09:59:03;;;;;;;5.40;4.40;;;;;;;23.72;65.62;96157.17;106892;1273;22782;-76
2023/09/17 10:01:35;;;;;;;6.20;4.90;;;;;;;23.72;65.14;96152.70;106943;1272;22758;-76
2023/09/17 10:04:07;;;;;;;5.30;4.80;;;;;;;23.76;65.70;96151.55;106863;1273;24915;-76
2023/09/17 10:06:37;;;;;;;5.40;4.90;;;;;;;23.82;65.62;96151.53;106907;1273;22547;-76
2023/09/17 10:09:13;;;;;;;5.30;4.80;;;;;;;23.96;65.97;96150.88;106960;1273;24393;-75
2023/09/17 10:11:41;;;;;;;7.00;5.30;;;;;;;23.92;64.97;96149.30;107025;1273;23143;-76
2023/09/17 10:14:09;;;;;;;6.70;4.90;;;;;;;23.89;65.43;96151.67;106932;1273;24561;-77
2023/09/17 10:16:40;;;;;;;8.00;5.80;;;;;;;23.72;64.75;96153.08;106901;1273;22631;-77
2023/09/17 10:19:09;;;;;;;5.80;5.10;;;;;;;23.52;65.63;96158.39;106931;1273;26660;-77
2023/09/17 10:21:39;;;;;;;8.30;5.00;;;;;;;23.29;65.53;96164.66;106904;1273;22553;-77
2023/09/17 10:24:09;;;;;;;5.60;5.10;;;;;;;23.14;66.68;96165.69;106973;1260;25607;-76
2023/09/17 10:26:42;;;;;;;5.90;5.00;;;;;;;22.94;66.64;96167.23;106961;1273;25344;-76
2023/09/17 10:29:15;;;;;;;9.00;5.90;;;;;;;22.83;67.04;96169.63;106901;1273;25239;-76
2023/09/17 10:31:43;;;;;;;;;;;;;;;22.84;67.17;96165.66;107006;1273;25456;-76
2023/09/17 10:34:15;;;;;;;5.70;5.10;;;;;;;22.77;67.10;96168.02;106758;1273;22528;-76
2023/09/17 10:36:45;;;;;;;5.70;5.00;;;;;;;22.65;66.92;96165.31;106906;1273;25419;-76
2023/09/17 10:39:15;;;;;;;10.10;4.70;;;;;;;22.41;66.50;96162.38;107037;1273;23140;-77
2023/09/17 10:41:45;;;;;;;6.70;5.10;;;;;;;22.31;67.20;96161.52;106941;1273;22535;-77
2023/09/17 10:44:15;;;;;;;5.50;4.90;;;;;;;22.27;67.48;96157.58;106927;1268;22528;-77
2023/09/17 10:46:45;;;;;;;6.30;4.80;;;;;;;22.31;68.12;96156.84;106954;1273;23682;-77
2023/09/17 10:49:17;;;;;;;5.90;4.90;;;;;;;22.31;67.79;96155.57;106908;1273;24084;-77
2023/09/17 10:51:48;;;;;;;5.40;4.00;;;;;;;22.30;67.95;96161.41;106947;1273;24220;-77
2023/09/17 10:54:16;;;;;;;4.80;4.20;;;;;;;22.24;68.23;96165.27;107065;1273;25428;-76
2023/09/17 10:56:45;;;;;;;6.30;4.10;;;;;;;22.16;68.24;96165.53;106876;1273;25521;-77
2023/09/17 10:59:17;;;;;;;4.50;4.00;;;;;;;22.02;68.09;96160.92;107051;1273;24390;-77
2023/09/17 11:01:47;;;;;;;4.70;3.80;;;;;;;21.91;68.70;96157.73;106943;1273;25362;-77
2023/09/17 11:04:19;;;;;;;4.60;4.20;;;;;;;21.84;68.33;96159.05;106902;1273;22526;-77
2023/09/17 11:06:50;;;;;;;5.90;4.30;;;;;;;21.70;68.16;96157.45;106954;1273;24291;-77
2023/09/17 11:09:20;;;;;;;5.30;4.50;;;;;;;21.65;69.25;96152.88;106931;1273;25345;-77
2023/09/17 11:11:48;;;;;;;5.30;4.40;;;;;;;21.63;69.99;96153.38;106952;1273;25387;-77
2023/09/17 11:14:16;;;;;;;8.00;5.20;;;;;;;21.58;70.83;96150.20;106923;1273;22889;-77
2023/09/17 11:16:48;;;;;;;5.40;4.60;;;;;;;21.56;71.67;96156.77;106900;1273;25517;-77
2023/09/17 11:19:19;;;;;;;5.70;4.80;;;;;;;21.47;71.97;96160.45;106916;1273;22527;-77
2023/09/17 11:21:50;;;;;;;6.30;4.90;;;;;;;21.29;73.05;96157.27;107007;1260;24280;-77
2023/09/17 11:24:22;;;;;;;5.20;4.70;;;;;;;21.18;73.00;96151.35;107001;1273;24260;-77
2023/09/17 11:26:50;;;;;;;6.70;4.90;;;;;;;21.08;73.99;96149.92;106898;1273;22524;-77
2023/09/17 11:29:18;;;;;;;8.70;5.20;;;;;;;21.00;75.10;96147.50;106932;1273;22530;-77
2023/09/17 11:31:52;;;;;;;9.40;5.40;;;;;;;20.90;75.19;96149.41;106938;1273;22577;-77
2023/09/17 11:34:21;;;;;;;6.30;5.60;;;;;;;20.81;75.71;96153.11;107014;1273;24313;-77